createdAt,value
2019-03-09T00:01:29.584Z,10.59
2019-03-09T00:03:59.282Z,10.59
2019-03-09T00:06:29.096Z,10.58
2019-03-09T00:08:58.713Z,10.50
2019-03-09T00:11:28.739Z,10.52
2019-03-09T00:13:58.044Z,10.55
2019-03-09T00:16:29.833Z,10.59
2019-03-09T00:18:59.670Z,10.43
2019-03-09T00:21:29.020Z,10.51
2019-03-09T00:24:20.357Z,10.58
2019-03-09T00:27:14.726Z,10.48
2019-03-09T00:29:55.871Z,10.47
2019-03-09T00:32:26.994Z,10.38
2019-03-09T00:34:57.059Z,10.49
2019-03-09T00:37:26.361Z,10.49
2019-03-09T00:39:56.351Z,10.58
2019-03-09T00:42:26.162Z,10.44
2019-03-09T00:44:55.663Z,10.50
2019-03-09T00:47:25.127Z,10.54
2019-03-09T00:49:54.913Z,10.52
2019-03-09T00:52:24.225Z,10.59
2019-03-09T00:54:53.671Z,10.60
2019-03-09T00:57:23.551Z,10.49
2019-03-09T00:59:57.219Z,10.44
2019-03-09T01:02:28.398Z,10.52
2019-03-09T01:04:58.147Z,10.59
2019-03-09T01:07:27.554Z,10.52
2019-03-09T01:09:56.847Z,10.45
2019-03-09T01:12:26.527Z,10.49
2019-03-09T01:14:55.815Z,10.55
2019-03-09T01:17:25.077Z,10.61
2019-03-09T01:19:54.650Z,10.57
2019-03-09T01:22:23.939Z,10.59
2019-03-09T01:24:53.196Z,10.55
2019-03-09T01:27:22.922Z,10.56
2019-03-09T01:29:52.613Z,10.53
2019-03-09T01:32:23.448Z,10.54
2019-03-09T01:34:55.243Z,10.55
2019-03-09T01:37:24.549Z,10.54
2019-03-09T01:39:54.040Z,10.56
2019-03-09T01:42:25.403Z,10.55
2019-03-09T01:44:54.716Z,10.57
2019-03-09T01:47:26.386Z,10.60
2019-03-09T01:49:55.658Z,10.58
2019-03-09T01:52:24.964Z,10.57
2019-03-09T01:54:55.780Z,10.58
2019-03-09T01:57:25.200Z,10.49
2019-03-09T01:59:57.034Z,10.57
2019-03-09T02:02:26.954Z,10.53
2019-03-09T02:04:56.243Z,10.47
2019-03-09T02:07:25.523Z,10.44
2019-03-09T02:09:55.146Z,10.36
2019-03-09T02:12:24.385Z,10.42
2019-03-09T02:14:53.662Z,10.43
2019-03-09T02:17:23.526Z,10.49
2019-03-09T02:19:52.841Z,10.45
2019-03-09T02:22:22.133Z,10.56
2019-03-09T02:24:51.827Z,10.49
2019-03-09T02:27:21.108Z,10.54
2019-03-09T02:29:50.607Z,10.56
2019-03-09T02:32:22.352Z,10.63
2019-03-09T02:34:51.937Z,10.71
2019-03-09T02:37:21.276Z,10.68
2019-03-09T02:39:55.910Z,10.68
2019-03-09T02:42:25.191Z,10.68
2019-03-09T02:44:54.523Z,10.71
2019-03-09T02:47:23.769Z,10.72
2019-03-09T02:49:53.024Z,10.73
2019-03-09T02:52:23.119Z,10.71
2019-03-09T02:54:52.354Z,10.76
2019-03-09T02:57:21.585Z,10.74
2019-03-09T02:59:51.430Z,10.74
2019-03-09T03:02:34.046Z,10.76
2019-03-09T03:05:04.884Z,10.74
2019-03-09T03:07:34.145Z,10.74
2019-03-09T03:10:06.273Z,10.70
2019-03-09T03:12:35.617Z,10.64
2019-03-09T03:15:05.370Z,10.75
2019-03-09T03:17:36.312Z,10.75
2019-03-09T03:20:09.098Z,10.69
2019-03-09T03:22:38.656Z,10.76
2019-03-09T03:25:08.371Z,10.70
2019-03-09T03:27:37.682Z,10.68
2019-03-09T03:30:07.117Z,10.65
2019-03-09T03:32:37.482Z,10.74
2019-03-09T03:35:07.421Z,10.73
2019-03-09T03:37:36.669Z,10.68
2019-03-09T03:40:09.504Z,10.67
2019-03-09T03:42:38.844Z,10.67
2019-03-09T03:45:08.108Z,10.66
2019-03-09T03:47:37.876Z,10.60
2019-03-09T03:50:07.160Z,10.59
2019-03-09T03:52:36.434Z,10.59
2019-03-09T03:55:06.290Z,10.52
2019-03-09T03:57:35.518Z,10.49
2019-03-09T04:00:06.325Z,10.42
2019-03-09T04:02:36.185Z,10.42
2019-03-09T04:05:06.361Z,10.29
2019-03-09T04:07:35.564Z,10.24
2019-03-09T04:10:06.237Z,10.17
2019-03-09T04:12:35.617Z,10.16
2019-03-09T04:15:05.132Z,10.20
2019-03-09T04:17:38.004Z,10.09
2019-03-09T04:20:07.741Z,10.05
2019-03-09T04:22:36.952Z,10.01
2019-03-09T04:25:06.689Z,9.97
2019-03-09T04:27:36.445Z,9.90
2019-03-09T04:30:09.165Z,9.87
2019-03-09T04:32:38.380Z,9.81
2019-03-09T04:35:07.793Z,9.70
2019-03-09T04:37:37.354Z,9.70
2019-03-09T04:40:06.833Z,9.75
2019-03-09T04:42:36.375Z,9.73
2019-03-09T04:45:06.740Z,9.49
2019-03-09T04:47:36.204Z,9.45
2019-03-09T04:50:06.875Z,9.47
2019-03-09T04:52:36.440Z,9.40
2019-03-09T04:55:05.999Z,9.33
2019-03-09T04:57:35.288Z,9.33
2019-03-09T05:00:07.040Z,9.36
2019-03-09T05:02:36.247Z,9.33
2019-03-09T05:05:07.366Z,9.30
2019-03-09T05:07:57.436Z,9.31
2019-03-09T05:10:39.726Z,9.32
2019-03-09T05:13:24.796Z,9.36
2019-03-09T05:15:54.162Z,9.34
2019-03-09T05:18:23.970Z,9.31
2019-03-09T05:20:53.242Z,9.24
2019-03-09T05:23:22.537Z,9.23
2019-03-09T05:25:52.252Z,9.12
2019-03-09T05:28:21.502Z,9.22
2019-03-09T05:30:50.845Z,9.16
2019-03-09T05:33:20.459Z,9.10
2019-03-09T05:35:49.739Z,9.15
2019-03-09T05:38:18.999Z,9.22
2019-03-09T05:40:48.549Z,9.19
2019-03-09T05:43:17.794Z,9.17
2019-03-09T05:45:47.449Z,9.14
2019-03-09T05:48:16.650Z,9.09
2019-03-09T05:50:45.895Z,9.08
2019-03-09T05:53:20.667Z,9.12
2019-03-09T05:55:49.918Z,9.15
2019-03-09T05:58:19.141Z,9.07
2019-03-09T06:00:48.917Z,9.14
2019-03-09T06:03:18.170Z,9.11
2019-03-09T06:05:58.779Z,9.03
2019-03-09T06:08:29.381Z,9.06
2019-03-09T06:10:58.620Z,9.04
2019-03-09T06:13:27.891Z,8.99
2019-03-09T06:15:57.458Z,9.05
2019-03-09T06:18:26.830Z,9.10
2019-03-09T06:20:58.877Z,9.08
2019-03-09T06:23:28.565Z,9.15
2019-03-09T06:25:57.846Z,9.13
2019-03-09T06:28:27.591Z,9.11
2019-03-09T06:30:59.378Z,9.09
2019-03-09T06:33:38.740Z,9.15
2019-03-09T06:36:28.949Z,9.15
2019-03-09T06:39:12.891Z,9.18
2019-03-09T06:42:41.695Z,9.20
2019-03-09T06:45:13.069Z,9.20
2019-03-09T06:47:42.337Z,9.21
2019-03-09T06:50:13.890Z,9.26
2019-03-09T06:52:43.517Z,9.27
2019-03-09T06:55:13.036Z,9.30
2019-03-09T06:57:42.282Z,9.46
2019-03-09T07:00:40.538Z,9.38
2019-03-09T07:03:10.582Z,9.34
2019-03-09T07:05:40.806Z,9.30
2019-03-09T07:08:10.121Z,9.51
2019-03-09T07:10:40.276Z,9.50
2019-03-09T07:13:09.878Z,9.58
2019-03-09T07:15:41.209Z,9.57
2019-03-09T07:18:24.430Z,9.50
2019-03-09T07:20:54.073Z,9.52
2019-03-09T07:23:23.332Z,9.54
2019-03-09T07:25:52.616Z,9.55
2019-03-09T07:28:22.528Z,9.57
2019-03-09T07:30:51.844Z,9.65
2019-03-09T07:33:21.114Z,9.69
2019-03-09T07:35:50.847Z,9.73
2019-03-09T07:38:20.169Z,9.75
2019-03-09T07:40:49.462Z,9.83
2019-03-09T07:43:20.510Z,9.87
2019-03-09T07:45:49.778Z,9.93
2019-03-09T07:48:19.133Z,10.00
2019-03-09T07:50:48.792Z,9.95
2019-03-09T07:53:18.049Z,10.07
2019-03-09T07:55:47.436Z,10.18
2019-03-09T07:58:17.115Z,10.19
2019-03-09T08:00:46.551Z,10.18
2019-03-09T08:03:15.793Z,10.20
2019-03-09T08:05:45.470Z,10.19
2019-03-09T08:08:14.922Z,10.14
2019-03-09T08:10:44.213Z,10.25
2019-03-09T08:13:14.129Z,10.33
2019-03-09T08:15:43.456Z,10.33
2019-03-09T08:18:12.911Z,10.31
2019-03-09T08:20:42.731Z,10.32
2019-03-09T08:23:14.062Z,10.40
2019-03-09T08:25:43.311Z,10.50
2019-03-09T08:28:13.003Z,10.44
2019-03-09T08:30:42.347Z,10.31
2019-03-09T08:33:11.602Z,10.47
2019-03-09T08:35:41.343Z,10.56
2019-03-09T08:38:10.591Z,10.59
2019-03-09T08:40:39.846Z,10.62
2019-03-09T08:43:09.844Z,10.56
2019-03-09T08:45:39.235Z,10.68
2019-03-09T08:48:08.516Z,10.74
2019-03-09T08:50:38.152Z,10.78
2019-03-09T08:53:07.409Z,10.86
2019-03-09T08:55:36.742Z,10.93
2019-03-09T08:58:06.619Z,10.97
2019-03-09T09:00:36.195Z,11.05
2019-03-09T09:03:05.395Z,10.96
2019-03-09T09:05:35.130Z,11.03
2019-03-09T09:08:07.392Z,11.12
2019-03-09T09:10:36.671Z,11.23
2019-03-09T09:13:07.445Z,11.21
2019-03-09T09:15:37.657Z,11.22
2019-03-09T09:18:07.503Z,11.20
2019-03-09T09:20:37.145Z,11.09
2019-03-09T09:23:07.788Z,11.18
2019-03-09T09:25:37.132Z,11.19
2019-03-09T09:28:09.640Z,11.24
2019-03-09T09:30:39.909Z,11.45
2019-03-09T09:33:09.928Z,11.46
2019-03-09T09:35:39.551Z,11.48
2019-03-09T09:38:09.338Z,11.34
2019-03-09T09:40:38.616Z,11.33
2019-03-09T09:43:08.259Z,11.38
2019-03-09T09:45:37.563Z,11.32
2019-03-09T09:48:08.266Z,11.38
2019-03-09T09:50:37.550Z,11.43
2019-03-09T09:53:06.801Z,11.34
2019-03-09T09:55:36.581Z,11.47
2019-03-09T09:58:11.577Z,11.49
2019-03-09T10:00:40.897Z,11.43
2019-03-09T10:03:10.587Z,11.61
2019-03-09T10:05:39.934Z,11.66
2019-03-09T10:08:09.288Z,11.72
2019-03-09T10:10:42.371Z,11.48
2019-03-09T10:13:11.770Z,11.41
2019-03-09T10:15:41.005Z,11.40
2019-03-09T10:18:11.622Z,11.41
2019-03-09T10:20:41.048Z,11.42
2019-03-09T10:23:12.638Z,11.43
2019-03-09T10:25:42.419Z,11.51
2019-03-09T10:28:11.757Z,11.40
2019-03-09T10:30:42.608Z,11.34
2019-03-09T10:33:11.850Z,11.33
2019-03-09T10:35:41.215Z,11.43
2019-03-09T10:38:10.800Z,11.39
2019-03-09T10:40:40.198Z,11.39
2019-03-09T10:43:09.562Z,11.41
2019-03-09T10:45:39.267Z,11.46
2019-03-09T10:48:08.514Z,11.43
2019-03-09T10:50:37.872Z,11.43
2019-03-09T10:53:07.671Z,11.43
2019-03-09T10:55:38.386Z,11.44
2019-03-09T10:58:07.767Z,11.45
2019-03-09T11:00:38.127Z,11.51
2019-03-09T11:03:07.456Z,11.54
2019-03-09T11:05:36.765Z,11.56
2019-03-09T11:08:09.416Z,11.55
2019-03-09T11:10:38.781Z,11.52
2019-03-09T11:13:08.079Z,11.57
2019-03-09T11:15:38.021Z,11.50
2019-03-09T11:18:07.495Z,11.47
2019-03-09T11:20:38.089Z,11.52
2019-03-09T11:23:08.942Z,11.49
2019-03-09T11:25:38.216Z,11.50
2019-03-09T11:28:12.635Z,11.45
2019-03-09T11:30:42.377Z,11.45
2019-03-09T11:33:11.647Z,11.48
2019-03-09T11:35:42.709Z,11.46
2019-03-09T11:38:12.577Z,11.60
2019-03-09T11:40:43.282Z,11.59
2019-03-09T11:43:13.025Z,11.63
2019-03-09T11:45:43.057Z,11.57
2019-03-09T11:48:12.390Z,11.63
2019-03-09T11:50:41.889Z,11.69
2019-03-09T11:53:11.698Z,11.69
2019-03-09T11:55:40.970Z,11.67
2019-03-09T11:58:10.252Z,11.67
2019-03-09T12:00:40.415Z,11.57
2019-03-09T12:03:09.721Z,11.47
2019-03-09T12:05:39.052Z,11.46
2019-03-09T12:08:08.706Z,11.41
2019-03-09T12:10:38.212Z,11.36
2019-03-09T12:13:07.872Z,11.34
2019-03-09T12:15:37.773Z,11.54
2019-03-09T12:18:07.925Z,11.50
2019-03-09T12:20:37.621Z,11.35
2019-03-09T12:23:16.872Z,11.25
2019-03-09T12:25:46.394Z,11.31
2019-03-09T12:28:15.782Z,11.41
2019-03-09T12:30:45.153Z,11.34
2019-03-09T12:33:14.595Z,11.47
2019-03-09T12:35:44.695Z,11.54
2019-03-09T12:38:14.141Z,11.55
2019-03-09T12:40:43.995Z,11.56
2019-03-09T12:43:17.496Z,11.56
2019-03-09T12:45:47.895Z,11.59
2019-03-09T12:48:17.396Z,11.56
2019-03-09T12:50:47.190Z,11.38
2019-03-09T12:53:16.599Z,11.44
2019-03-09T12:55:45.971Z,11.51
2019-03-09T12:58:15.851Z,11.41
2019-03-09T13:00:45.435Z,11.40
2019-03-09T13:03:14.771Z,11.48
2019-03-09T13:05:47.092Z,11.58
2019-03-09T13:08:16.474Z,11.52
2019-03-09T13:10:45.876Z,11.42
2019-03-09T13:13:15.610Z,11.58
2019-03-09T13:15:45.267Z,11.62
2019-03-09T13:18:15.141Z,11.59
2019-03-09T13:20:49.779Z,11.61
2019-03-09T13:23:22.504Z,11.62
2019-03-09T13:25:54.735Z,11.67
2019-03-09T13:28:24.461Z,11.69
2019-03-09T13:30:53.922Z,11.50
2019-03-09T13:33:23.584Z,11.58
2019-03-09T13:35:53.343Z,11.57
2019-03-09T13:38:22.893Z,11.64
2019-03-09T13:40:53.000Z,11.53
2019-03-09T13:43:22.514Z,11.54
2019-03-09T13:45:52.148Z,11.62
2019-03-09T13:48:22.541Z,11.67
2019-03-09T13:50:57.244Z,11.66
2019-03-09T13:53:26.814Z,11.60
2019-03-09T13:55:57.294Z,11.69
2019-03-09T13:58:26.987Z,11.62
2019-03-09T14:00:59.636Z,11.69
2019-03-09T14:03:29.647Z,11.71
2019-03-09T14:05:59.394Z,11.82
2019-03-09T14:08:31.339Z,11.76
2019-03-09T14:11:02.066Z,11.77
2019-03-09T14:13:31.565Z,11.72
2019-03-09T14:16:01.269Z,11.77
2019-03-09T14:18:31.393Z,11.64
2019-03-09T14:21:07.108Z,11.58
2019-03-09T14:23:39.122Z,11.61
2019-03-09T14:26:09.166Z,11.63
2019-03-09T14:28:42.757Z,11.69
2019-03-09T14:31:12.857Z,11.76
2019-03-09T14:33:42.517Z,11.89
2019-03-09T14:36:12.423Z,11.89
2019-03-09T14:38:42.480Z,11.90
2019-03-09T14:41:12.163Z,11.74
2019-03-09T14:43:41.914Z,11.87
2019-03-09T14:46:11.884Z,11.86
2019-03-09T14:48:41.668Z,11.85
2019-03-09T14:51:11.446Z,11.89
2019-03-09T14:53:41.050Z,12.02
2019-03-09T14:56:10.716Z,12.03
2019-03-09T14:58:41.772Z,12.09
2019-03-09T15:01:11.530Z,12.15
2019-03-09T15:03:41.240Z,12.19
2019-03-09T15:06:11.051Z,12.28
2019-03-09T15:08:40.760Z,12.37
2019-03-09T15:11:10.747Z,12.40
2019-03-09T15:13:40.470Z,12.51
2019-03-09T15:16:10.215Z,12.59
2019-03-09T15:18:40.381Z,12.72
2019-03-09T15:21:10.106Z,12.89
2019-03-09T15:23:39.788Z,13.10
2019-03-09T15:26:09.475Z,13.37
2019-03-09T15:28:39.297Z,13.69
2019-03-09T15:31:09.838Z,14.16
2019-03-09T15:33:40.054Z,14.27
2019-03-09T15:36:09.997Z,13.96
2019-03-09T15:38:40.080Z,13.92
2019-03-09T15:41:11.440Z,14.02
2019-03-09T15:43:41.163Z,13.59
2019-03-09T15:46:12.449Z,13.48
2019-03-09T15:48:42.826Z,13.36
2019-03-09T15:51:12.631Z,13.20
2019-03-09T15:53:42.526Z,13.18
2019-03-09T15:56:12.617Z,13.12
2019-03-09T15:58:42.577Z,13.17
2019-03-09T16:01:12.400Z,13.30
2019-03-09T16:03:43.437Z,13.22
2019-03-09T16:06:13.441Z,13.35
2019-03-09T16:08:43.144Z,13.35
2019-03-09T16:11:12.986Z,13.67
2019-03-09T16:13:42.852Z,13.81
2019-03-09T16:16:12.589Z,13.58
2019-03-09T16:18:42.746Z,13.62
2019-03-09T16:21:12.564Z,13.73
2019-03-09T16:23:42.262Z,13.46
2019-03-09T16:26:12.760Z,13.62
2019-03-09T16:28:44.948Z,13.53
2019-03-09T16:31:14.805Z,13.44
2019-03-09T16:33:45.484Z,13.46
2019-03-09T16:36:15.402Z,13.48
2019-03-09T16:38:47.139Z,13.47
2019-03-09T16:41:16.853Z,13.48
2019-03-09T16:43:46.922Z,13.38
2019-03-09T16:46:18.123Z,13.38
2019-03-09T16:48:47.972Z,13.38
2019-03-09T16:51:17.887Z,13.42
2019-03-09T16:53:48.299Z,13.45
2019-03-09T16:56:20.408Z,13.39
2019-03-09T16:58:50.272Z,13.29
2019-03-09T17:01:20.488Z,13.26
2019-03-09T17:03:50.199Z,13.16
2019-03-09T17:06:19.968Z,13.17
2019-03-09T17:08:51.357Z,13.13
2019-03-09T17:11:21.126Z,13.11
2019-03-09T17:13:54.044Z,13.11
2019-03-09T17:16:24.109Z,13.13
2019-03-09T17:18:56.882Z,13.15
2019-03-09T17:21:26.682Z,13.15
2019-03-09T17:23:56.855Z,13.06
2019-03-09T17:26:26.634Z,13.06
2019-03-09T17:28:56.591Z,13.02
2019-03-09T17:31:27.051Z,13.05
2019-03-09T17:33:56.856Z,13.00
2019-03-09T17:36:27.626Z,12.94
2019-03-09T17:38:57.920Z,12.94
2019-03-09T17:41:30.455Z,12.92
2019-03-09T17:44:01.627Z,12.85
2019-03-09T17:46:31.953Z,12.87
2019-03-09T17:49:01.774Z,12.91
2019-03-09T17:51:31.741Z,12.88
2019-03-09T17:54:03.246Z,12.88
2019-03-09T17:56:33.083Z,12.84
2019-03-09T17:59:02.849Z,12.83
2019-03-09T18:01:36.065Z,12.87
2019-03-09T18:04:08.914Z,12.85
2019-03-09T18:06:41.672Z,12.85
2019-03-09T18:09:11.631Z,12.81
2019-03-09T18:11:41.527Z,12.81
2019-03-09T18:14:14.404Z,12.75
2019-03-09T18:16:52.417Z,12.73
2019-03-09T18:19:17.951Z,12.74
2019-03-09T18:21:47.793Z,12.74
2019-03-09T18:24:17.665Z,12.74
2019-03-09T18:26:47.568Z,12.72
2019-03-09T18:29:18.740Z,12.76
2019-03-09T18:31:48.466Z,12.75
2019-03-09T18:34:18.610Z,12.79
2019-03-09T18:36:48.418Z,12.74
2019-03-09T18:39:18.350Z,12.77
2019-03-09T18:41:48.630Z,12.75
2019-03-09T18:44:18.524Z,12.75
2019-03-09T18:46:48.300Z,12.73
2019-03-09T18:49:18.730Z,12.71
2019-03-09T18:51:48.602Z,12.71
2019-03-09T18:54:18.353Z,12.77
2019-03-09T18:56:48.306Z,12.72
2019-03-09T18:59:18.577Z,12.72
2019-03-09T19:01:50.100Z,12.71
2019-03-09T19:04:21.158Z,12.75
2019-03-09T19:06:50.957Z,12.73
2019-03-09T19:09:22.171Z,12.74
2019-03-09T19:11:51.989Z,12.77
2019-03-09T19:14:22.100Z,12.77
2019-03-09T19:16:52.407Z,12.78
2019-03-09T19:19:22.269Z,12.79
2019-03-09T19:21:52.086Z,12.78
2019-03-09T19:24:22.289Z,12.81
2019-03-09T19:26:52.204Z,12.82
2019-03-09T19:29:22.249Z,12.84
2019-03-09T19:31:52.484Z,12.87
2019-03-09T19:34:22.568Z,12.85
2019-03-09T19:36:52.801Z,12.83
2019-03-09T19:39:23.141Z,12.80
2019-03-09T19:41:54.002Z,12.80
2019-03-09T19:44:24.342Z,12.80
2019-03-09T19:46:55.255Z,12.81
2019-03-09T19:49:25.175Z,12.82
2019-03-09T19:51:56.553Z,12.78
2019-03-09T19:54:26.367Z,12.76
2019-03-09T19:56:56.380Z,12.74
2019-03-09T19:59:29.965Z,12.78
2019-03-09T20:01:59.941Z,12.79
2019-03-09T20:04:30.034Z,12.79
2019-03-09T20:07:01.622Z,12.76
2019-03-09T20:09:31.653Z,12.75
2019-03-09T20:12:02.271Z,12.76
2019-03-09T20:14:33.735Z,12.78
2019-03-09T20:17:03.600Z,12.78
2019-03-09T20:19:33.496Z,12.82
2019-03-09T20:22:07.966Z,12.82
2019-03-09T20:27:03.479Z,12.81
2019-03-09T20:29:33.759Z,12.78
2019-03-09T20:32:06.672Z,12.77
2019-03-09T20:34:43.474Z,12.80
2019-03-09T20:37:13.484Z,12.75
2019-03-09T20:39:43.392Z,12.75
2019-03-09T20:42:14.247Z,12.82
2019-03-09T20:44:45.308Z,12.77
2019-03-09T20:47:15.628Z,12.74
2019-03-09T20:49:45.965Z,12.81
2019-03-09T20:52:15.932Z,12.80
2019-03-09T20:54:45.947Z,12.74
2019-03-09T20:57:16.938Z,12.76
2019-03-09T20:59:47.204Z,12.74
2019-03-09T21:02:16.976Z,12.77
2019-03-09T21:04:46.807Z,12.78
2019-03-09T21:07:17.211Z,12.76
2019-03-09T21:09:48.117Z,12.78
2019-03-09T21:12:19.621Z,12.78
2019-03-09T21:14:51.818Z,12.79
2019-03-09T21:17:21.941Z,12.79
2019-03-09T21:19:54.033Z,12.78
2019-03-09T21:22:24.316Z,12.77
2019-03-09T21:24:57.300Z,12.80
2019-03-09T21:27:27.239Z,12.77
2019-03-09T21:29:57.572Z,12.79
2019-03-09T21:32:27.364Z,12.79
2019-03-09T21:34:57.360Z,12.78
2019-03-09T21:37:28.846Z,12.81
2019-03-09T21:39:58.553Z,12.77
2019-03-09T21:42:30.871Z,12.79
2019-03-09T21:45:02.138Z,12.79
2019-03-09T21:47:32.089Z,12.80
2019-03-09T21:50:11.288Z,12.80
2019-03-09T21:52:41.846Z,12.85
2019-03-09T21:55:13.731Z,12.88
2019-03-09T21:57:43.567Z,12.91
2019-03-09T22:00:14.174Z,12.82
2019-03-09T22:02:44.167Z,12.84
2019-03-09T22:05:14.607Z,12.79
2019-03-09T22:07:47.154Z,12.79
2019-03-09T22:10:16.741Z,12.87
2019-03-09T22:12:49.391Z,12.89
2019-03-09T22:15:19.100Z,12.98
2019-03-09T22:17:49.088Z,12.92
2019-03-09T22:20:20.458Z,12.95
2019-03-09T22:22:49.870Z,13.02
2019-03-09T22:25:19.279Z,13.01
2019-03-09T22:27:51.728Z,12.99
2019-03-09T22:30:22.742Z,13.04
2019-03-09T22:32:52.583Z,12.98
2019-03-09T22:35:22.696Z,12.99
2019-03-09T22:37:52.506Z,13.02
2019-03-09T22:40:24.965Z,13.01
2019-03-09T22:42:54.647Z,12.98
2019-03-09T22:45:26.156Z,13.02
2019-03-09T22:47:56.471Z,13.00
2019-03-09T22:50:26.040Z,13.01
2019-03-09T22:52:55.965Z,13.02
2019-03-09T22:55:25.473Z,13.08
2019-03-09T22:57:54.838Z,13.10
2019-03-09T23:00:24.803Z,13.00
2019-03-09T23:02:55.702Z,12.99
2019-03-09T23:05:25.257Z,13.06
2019-03-09T23:07:56.086Z,13.01
2019-03-09T23:10:25.462Z,13.02
2019-03-09T23:12:54.924Z,13.02
2019-03-09T23:15:25.124Z,13.02
2019-03-09T23:17:54.698Z,13.04
2019-03-09T23:20:24.123Z,13.03
2019-03-09T23:22:54.035Z,13.11
2019-03-09T23:25:23.648Z,13.08
2019-03-09T23:27:53.049Z,13.08
2019-03-09T23:30:22.888Z,13.06
2019-03-09T23:32:52.583Z,13.08
2019-03-09T23:35:22.660Z,13.13
2019-03-09T23:37:52.606Z,13.08
2019-03-09T23:40:22.143Z,13.08
2019-03-09T23:42:51.676Z,13.05
2019-03-09T23:45:21.650Z,13.01
2019-03-09T23:47:51.131Z,13.03
2019-03-09T23:50:21.497Z,13.06
2019-03-09T23:52:51.306Z,13.05
2019-03-09T23:55:22.960Z,13.06
2019-03-09T23:57:52.802Z,13.05
